createdAt,value
2023-03-26T00:00:02.797Z,9.96
2023-03-26T00:00:13.841Z,9.93
2023-03-26T00:00:24.816Z,9.93
2023-03-26T00:00:35.572Z,9.96
2023-03-26T00:00:46.614Z,9.91
2023-03-26T00:00:57.584Z,9.91
2023-03-26T00:01:08.347Z,9.93
2023-03-26T00:01:19.415Z,9.96
2023-03-26T00:01:30.369Z,9.94
2023-03-26T00:01:41.162Z,9.94
2023-03-26T00:01:52.218Z,9.94
2023-03-26T00:02:03.226Z,9.89
2023-03-26T00:02:14.012Z,9.94
2023-03-26T00:02:25.085Z,9.96
2023-03-26T00:02:36.102Z,9.93
2023-03-26T00:02:46.860Z,9.94
2023-03-26T00:02:57.955Z,9.99
2023-03-26T00:03:08.947Z,9.96
2023-03-26T00:03:19.678Z,9.99
2023-03-26T00:03:30.710Z,9.96
2023-03-26T00:03:41.681Z,9.94
2023-03-26T00:03:52.446Z,9.97
2023-03-26T00:04:03.490Z,9.97
2023-03-26T00:04:14.462Z,9.93
2023-03-26T00:04:25.217Z,9.96
2023-03-26T00:04:36.263Z,9.93
2023-03-26T00:04:47.229Z,9.99
2023-03-26T00:04:57.998Z,9.99
2023-03-26T00:05:09.102Z,9.99
2023-03-26T00:05:20.057Z,9.94
2023-03-26T00:05:30.872Z,9.97
2023-03-26T00:05:41.932Z,10.00
2023-03-26T00:05:53.041Z,10.00
2023-03-26T00:06:03.859Z,9.96
2023-03-26T00:06:14.891Z,9.97
2023-03-26T00:06:25.929Z,9.97
2023-03-26T00:06:36.650Z,9.97
2023-03-26T00:06:47.679Z,9.97
2023-03-26T00:06:58.643Z,9.99
2023-03-26T00:07:09.410Z,9.99
2023-03-26T00:07:20.452Z,9.99
2023-03-26T00:07:31.418Z,9.97
2023-03-26T00:07:42.188Z,10.00
2023-03-26T00:07:53.239Z,9.96
2023-03-26T00:08:04.200Z,9.99
2023-03-26T00:08:14.966Z,10.00
2023-03-26T00:08:26.042Z,9.99
2023-03-26T00:08:36.979Z,9.97
2023-03-26T00:08:47.742Z,10.01
2023-03-26T00:08:58.796Z,9.99
2023-03-26T00:09:09.752Z,9.97
2023-03-26T00:09:20.524Z,10.03
2023-03-26T00:09:31.574Z,9.99
2023-03-26T00:09:42.544Z,9.99
2023-03-26T00:09:53.303Z,10.00
2023-03-26T00:10:04.351Z,10.01
2023-03-26T00:10:15.320Z,9.97
2023-03-26T00:10:26.094Z,10.07
2023-03-26T00:10:37.129Z,9.99
2023-03-26T00:10:48.099Z,9.99
2023-03-26T00:11:00.955Z,10.01
2023-03-26T00:11:09.446Z,9.99
2023-03-26T00:11:20.467Z,9.99
2023-03-26T00:11:31.230Z,10.00
2023-03-26T00:11:42.279Z,10.00
2023-03-26T00:11:53.251Z,9.96
2023-03-26T00:12:04.020Z,10.01
2023-03-26T00:12:15.087Z,9.96
2023-03-26T00:12:26.034Z,10.01
2023-03-26T00:12:36.792Z,9.99
2023-03-26T00:12:47.842Z,9.94
2023-03-26T00:12:58.802Z,9.94
2023-03-26T00:13:09.567Z,9.99
2023-03-26T00:13:20.612Z,9.96
2023-03-26T00:13:31.576Z,9.96
2023-03-26T00:13:42.340Z,9.96
2023-03-26T00:13:53.480Z,9.94
2023-03-26T00:14:04.415Z,9.97
2023-03-26T00:14:15.180Z,9.97
2023-03-26T00:14:26.228Z,9.96
2023-03-26T00:14:37.197Z,9.97
2023-03-26T00:14:47.956Z,9.96
2023-03-26T00:14:59.000Z,9.93
2023-03-26T00:15:09.958Z,9.96
2023-03-26T00:15:20.726Z,9.96
2023-03-26T00:15:31.771Z,9.94
2023-03-26T00:15:42.742Z,9.94
2023-03-26T00:15:53.760Z,9.96
2023-03-26T00:16:04.429Z,9.96
2023-03-26T00:16:15.411Z,9.96
2023-03-26T00:16:26.216Z,10.01
2023-03-26T00:16:36.794Z,9.96
2023-03-26T00:16:47.879Z,9.93
2023-03-26T00:16:58.610Z,9.93
2023-03-26T00:17:09.660Z,9.97
2023-03-26T00:17:20.622Z,9.96
2023-03-26T00:17:31.407Z,9.94
2023-03-26T00:17:42.468Z,9.97
2023-03-26T00:17:53.470Z,9.94
2023-03-26T00:18:04.233Z,9.96
2023-03-26T00:18:15.265Z,9.96
2023-03-26T00:18:26.210Z,9.94
2023-03-26T00:18:36.988Z,9.93
2023-03-26T00:18:48.021Z,9.93
2023-03-26T00:18:58.988Z,9.89
2023-03-26T00:19:09.752Z,9.94
2023-03-26T00:19:20.803Z,9.93
2023-03-26T00:19:31.761Z,9.94
2023-03-26T00:19:42.534Z,9.94
2023-03-26T00:19:53.592Z,9.94
2023-03-26T00:20:04.554Z,9.94
2023-03-26T00:20:15.324Z,9.91
2023-03-26T00:20:26.370Z,9.91
2023-03-26T00:20:37.330Z,9.93
2023-03-26T00:20:48.106Z,9.93
2023-03-26T00:20:59.144Z,9.91
2023-03-26T00:21:10.108Z,9.96
2023-03-26T00:21:20.890Z,9.96
2023-03-26T00:21:31.933Z,9.89
2023-03-26T00:21:42.901Z,9.96
2023-03-26T00:21:53.678Z,9.89
2023-03-26T00:22:04.726Z,9.88
2023-03-26T00:22:15.681Z,9.93
2023-03-26T00:22:26.447Z,9.91
2023-03-26T00:22:37.494Z,9.86
2023-03-26T00:22:48.459Z,9.86
2023-03-26T00:22:59.225Z,9.91
2023-03-26T00:23:10.266Z,9.89
2023-03-26T00:23:21.233Z,9.89
2023-03-26T00:23:32.003Z,9.91
2023-03-26T00:23:43.042Z,9.89
2023-03-26T00:23:54.008Z,9.88
2023-03-26T00:24:04.835Z,9.93
2023-03-26T00:24:15.826Z,9.91
2023-03-26T00:24:26.790Z,9.88
2023-03-26T00:24:37.548Z,9.86
2023-03-26T00:24:48.595Z,9.91
2023-03-26T00:24:59.565Z,9.91
2023-03-26T00:25:10.324Z,9.93
2023-03-26T00:25:21.383Z,9.89
2023-03-26T00:25:32.339Z,9.88
2023-03-26T00:25:43.103Z,9.86
2023-03-26T00:25:54.391Z,9.85
2023-03-26T00:26:05.002Z,9.88
2023-03-26T00:26:15.768Z,9.86
2023-03-26T00:26:26.825Z,9.85
2023-03-26T00:26:37.826Z,9.85
2023-03-26T00:26:48.655Z,9.86
2023-03-26T00:26:59.202Z,9.86
2023-03-26T00:27:10.181Z,9.91
2023-03-26T00:27:20.940Z,9.89
2023-03-26T00:27:31.991Z,9.88
2023-03-26T00:27:42.954Z,9.86
2023-03-26T00:27:53.721Z,9.88
2023-03-26T00:28:04.764Z,9.86
2023-03-26T00:28:15.736Z,9.88
2023-03-26T00:28:26.493Z,9.85
2023-03-26T00:28:37.540Z,9.85
2023-03-26T00:28:48.509Z,9.85
2023-03-26T00:28:59.268Z,9.83
2023-03-26T00:29:10.318Z,9.89
2023-03-26T00:29:21.282Z,9.85
2023-03-26T00:29:32.055Z,9.88
2023-03-26T00:29:43.113Z,9.85
2023-03-26T00:29:54.068Z,9.85
2023-03-26T00:30:04.841Z,9.89
2023-03-26T00:30:15.882Z,9.86
2023-03-26T00:30:26.852Z,9.83
2023-03-26T00:30:37.637Z,9.88
2023-03-26T00:30:48.701Z,9.85
2023-03-26T00:30:59.695Z,9.82
2023-03-26T00:31:10.507Z,9.83
2023-03-26T00:31:21.041Z,9.83
2023-03-26T00:31:32.017Z,9.85
2023-03-26T00:31:42.781Z,9.88
2023-03-26T00:31:53.825Z,9.82
2023-03-26T00:32:04.792Z,9.85
2023-03-26T00:32:15.573Z,9.88
2023-03-26T00:32:26.639Z,9.85
2023-03-26T00:32:37.604Z,9.86
2023-03-26T00:32:53.496Z,9.83
2023-03-26T00:33:00.460Z,9.88
2023-03-26T00:33:10.339Z,9.82
2023-03-26T00:33:21.097Z,9.85
2023-03-26T00:33:32.125Z,9.89
2023-03-26T00:33:43.092Z,9.86
2023-03-26T00:33:53.854Z,9.83
2023-03-26T00:34:04.900Z,9.85
2023-03-26T00:34:16.028Z,9.85
2023-03-26T00:34:26.783Z,9.86
2023-03-26T00:34:37.824Z,9.83
2023-03-26T00:34:48.784Z,9.83
2023-03-26T00:34:59.545Z,9.86
2023-03-26T00:35:10.591Z,9.82
2023-03-26T00:35:21.557Z,9.83
2023-03-26T00:35:32.362Z,9.86
2023-03-26T00:35:43.411Z,9.85
2023-03-26T00:35:54.513Z,9.78
2023-03-26T00:36:05.393Z,9.86
2023-03-26T00:36:16.479Z,9.86
2023-03-26T00:36:27.457Z,9.82
2023-03-26T00:36:38.191Z,9.83
2023-03-26T00:36:49.262Z,9.82
2023-03-26T00:37:00.234Z,9.79
2023-03-26T00:37:10.995Z,9.85
2023-03-26T00:37:22.054Z,9.83
2023-03-26T00:37:33.020Z,9.82
2023-03-26T00:37:43.835Z,9.81
2023-03-26T00:37:54.882Z,9.83
2023-03-26T00:38:05.846Z,9.79
2023-03-26T00:38:16.632Z,9.79
2023-03-26T00:38:27.662Z,9.82
2023-03-26T00:38:38.626Z,9.81
2023-03-26T00:38:49.390Z,9.79
2023-03-26T00:39:00.439Z,9.81
2023-03-26T00:39:11.402Z,9.79
2023-03-26T00:39:22.170Z,9.82
2023-03-26T00:39:33.212Z,9.81
2023-03-26T00:39:44.183Z,9.78
2023-03-26T00:39:54.940Z,9.81
2023-03-26T00:40:07.008Z,9.79
2023-03-26T00:40:16.899Z,9.81
2023-03-26T00:40:27.670Z,9.81
2023-03-26T00:40:38.712Z,9.81
2023-03-26T00:40:49.680Z,9.78
2023-03-26T00:41:00.443Z,9.78
2023-03-26T00:41:11.502Z,9.82
2023-03-26T00:41:22.473Z,9.79
2023-03-26T00:41:33.235Z,9.78
2023-03-26T00:41:44.308Z,9.76
2023-03-26T00:41:55.257Z,9.78
2023-03-26T00:42:06.019Z,9.82
2023-03-26T00:42:17.062Z,9.78
2023-03-26T00:42:28.045Z,9.79
2023-03-26T00:42:38.802Z,9.78
2023-03-26T00:42:49.845Z,9.76
2023-03-26T00:43:00.811Z,9.76
2023-03-26T00:43:11.584Z,9.79
2023-03-26T00:43:22.640Z,9.83
2023-03-26T00:43:33.598Z,9.81
2023-03-26T00:43:44.364Z,9.81
2023-03-26T00:43:55.407Z,9.78
2023-03-26T00:44:06.379Z,9.75
2023-03-26T00:44:17.140Z,9.82
2023-03-26T00:44:28.191Z,9.79
2023-03-26T00:44:39.159Z,9.78
2023-03-26T00:44:49.917Z,9.82
2023-03-26T00:45:00.960Z,9.76
2023-03-26T00:45:11.929Z,9.78
2023-03-26T00:45:22.689Z,9.81
2023-03-26T00:45:33.736Z,9.82
2023-03-26T00:45:44.733Z,9.79
2023-03-26T00:45:55.701Z,9.82
2023-03-26T00:46:06.361Z,9.76
2023-03-26T00:46:17.605Z,9.79
2023-03-26T00:46:28.412Z,9.78
2023-03-26T00:46:39.456Z,9.76
2023-03-26T00:46:50.377Z,9.78
2023-03-26T00:47:01.163Z,9.78
2023-03-26T00:47:12.208Z,9.81
2023-03-26T00:47:23.171Z,9.78
2023-03-26T00:47:33.981Z,9.82
2023-03-26T00:47:45.018Z,9.79
2023-03-26T00:47:56.001Z,9.75
2023-03-26T00:48:06.780Z,9.76
2023-03-26T00:48:17.270Z,9.79
2023-03-26T00:48:41.835Z,9.75
2023-03-26T00:48:45.133Z,9.79
2023-03-26T00:48:51.174Z,9.78
2023-03-26T00:49:01.064Z,9.81
2023-03-26T00:49:11.833Z,9.83
2023-03-26T00:49:22.875Z,9.81
2023-03-26T00:49:33.852Z,9.79
2023-03-26T00:49:44.609Z,9.78
2023-03-26T00:49:55.658Z,9.78
2023-03-26T00:50:06.618Z,9.81
2023-03-26T00:50:17.380Z,9.82
2023-03-26T00:50:28.426Z,9.81
2023-03-26T00:50:39.394Z,9.78
2023-03-26T00:50:50.159Z,9.76
2023-03-26T00:51:01.215Z,9.79
2023-03-26T00:51:12.172Z,9.78
2023-03-26T00:51:22.938Z,9.75
2023-03-26T00:51:34.108Z,9.78
2023-03-26T00:51:44.587Z,9.78
2023-03-26T00:51:55.348Z,9.78
2023-03-26T00:52:06.406Z,9.78
2023-03-26T00:52:17.371Z,9.75
2023-03-26T00:52:28.138Z,9.79
2023-03-26T00:52:39.189Z,9.73
2023-03-26T00:52:50.157Z,9.81
2023-03-26T00:53:00.920Z,9.79
2023-03-26T00:53:11.963Z,9.76
2023-03-26T00:53:22.933Z,9.76
2023-03-26T00:53:33.692Z,9.79
2023-03-26T00:53:44.771Z,9.75
2023-03-26T00:53:55.708Z,9.76
2023-03-26T00:54:06.477Z,9.75
2023-03-26T00:54:17.519Z,9.76
2023-03-26T00:54:28.501Z,9.78
2023-03-26T00:54:39.253Z,9.78
2023-03-26T00:54:50.302Z,9.78
2023-03-26T00:55:01.260Z,9.76
2023-03-26T00:55:12.022Z,9.76
2023-03-26T00:55:23.067Z,9.79
2023-03-26T00:55:34.034Z,9.78
2023-03-26T00:55:44.814Z,9.78
2023-03-26T00:55:55.959Z,9.78
2023-03-26T00:56:06.912Z,9.75
2023-03-26T00:56:17.678Z,9.79
2023-03-26T00:56:28.222Z,9.76
2023-03-26T00:56:39.251Z,9.75
2023-03-26T00:56:50.020Z,9.78
2023-03-26T00:57:00.547Z,9.78
2023-03-26T00:57:11.529Z,9.78
2023-03-26T00:57:34.568Z,9.79
2023-03-26T00:57:36.276Z,9.78
2023-03-26T00:57:44.171Z,9.75
2023-03-26T00:57:54.927Z,9.79
2023-03-26T00:58:05.979Z,9.79
2023-03-26T00:58:16.943Z,9.78
2023-03-26T00:58:27.715Z,9.78
2023-03-26T00:58:38.758Z,9.79
2023-03-26T00:58:49.716Z,9.78
2023-03-26T00:59:00.482Z,9.78
2023-03-26T00:59:11.535Z,9.78
2023-03-26T00:59:22.489Z,9.78
2023-03-26T00:59:33.264Z,9.79
2023-03-26T00:59:44.305Z,9.73
2023-03-26T00:59:55.265Z,9.78
2023-03-26T01:00:06.030Z,9.78
2023-03-26T01:00:17.183Z,9.73
2023-03-26T01:00:28.082Z,9.82
2023-03-26T01:00:38.843Z,9.81
2023-03-26T01:00:49.888Z,9.75
2023-03-26T01:01:00.866Z,9.78
2023-03-26T01:01:11.656Z,9.83
2023-03-26T01:01:22.682Z,9.73
2023-03-26T01:01:33.699Z,9.79
2023-03-26T01:01:44.475Z,9.79
2023-03-26T01:01:55.508Z,9.79
2023-03-26T01:02:06.453Z,9.83
2023-03-26T01:02:17.293Z,9.81
2023-03-26T01:02:27.841Z,9.79
2023-03-26T01:02:38.853Z,9.81
2023-03-26T01:02:49.702Z,9.83
2023-03-26T01:03:00.265Z,9.82
2023-03-26T01:03:12.940Z,9.78
2023-03-26T01:03:26.939Z,9.76
2023-03-26T01:03:33.269Z,9.83
2023-03-26T01:03:50.344Z,9.81
2023-03-26T01:04:07.447Z,9.81
2023-03-26T01:04:09.149Z,9.82
2023-03-26T01:04:17.213Z,9.79
2023-03-26T01:04:28.605Z,9.85
2023-03-26T01:04:38.787Z,9.81
2023-03-26T01:04:49.358Z,9.82
2023-03-26T01:05:00.139Z,9.82
2023-03-26T01:05:11.221Z,9.81
2023-03-26T01:05:22.187Z,9.85
2023-03-26T01:05:32.901Z,9.82
2023-03-26T01:05:43.951Z,9.81
2023-03-26T01:05:55.101Z,9.78
2023-03-26T01:06:05.919Z,9.82
2023-03-26T01:06:16.959Z,9.78
2023-03-26T01:06:27.991Z,9.81
2023-03-26T01:06:38.726Z,9.81
2023-03-26T01:06:49.759Z,9.81
2023-03-26T01:07:00.722Z,9.81
2023-03-26T01:07:11.487Z,9.82
2023-03-26T01:07:22.541Z,9.81
2023-03-26T01:07:33.508Z,9.85
2023-03-26T01:07:44.274Z,9.79
2023-03-26T01:07:55.328Z,9.83
2023-03-26T01:08:06.313Z,9.82
2023-03-26T01:08:17.082Z,9.83
2023-03-26T01:08:28.129Z,9.82
2023-03-26T01:08:39.095Z,9.85
2023-03-26T01:08:49.860Z,9.82
2023-03-26T01:09:00.900Z,9.86
2023-03-26T01:09:11.869Z,9.83
2023-03-26T01:09:22.631Z,9.83
2023-03-26T01:09:33.685Z,9.81
2023-03-26T01:09:44.638Z,9.83
2023-03-26T01:09:55.402Z,9.81
2023-03-26T01:10:06.450Z,9.82
2023-03-26T01:10:17.415Z,9.81
2023-03-26T01:10:28.179Z,9.79
2023-03-26T01:10:39.224Z,9.83
2023-03-26T01:10:50.188Z,9.81
2023-03-26T01:11:00.954Z,9.81
2023-03-26T01:11:11.995Z,9.83
2023-03-26T01:11:22.960Z,9.83
2023-03-26T01:11:33.731Z,9.86
2023-03-26T01:11:44.763Z,9.82
2023-03-26T01:11:55.736Z,9.81
2023-03-26T01:12:06.505Z,9.83
2023-03-26T01:12:17.546Z,9.79
2023-03-26T01:12:28.516Z,9.82
2023-03-26T01:12:39.279Z,9.85
2023-03-26T01:12:50.324Z,9.79
2023-03-26T01:13:01.291Z,9.82
2023-03-26T01:13:12.055Z,9.82
2023-03-26T01:13:23.109Z,9.82
2023-03-26T01:13:34.070Z,9.85
2023-03-26T01:13:44.827Z,9.82
2023-03-26T01:13:55.876Z,9.81
2023-03-26T01:14:06.834Z,9.82
2023-03-26T01:14:17.607Z,9.82
2023-03-26T01:14:28.650Z,9.82
2023-03-26T01:14:39.613Z,9.79
2023-03-26T01:14:51.189Z,9.82
2023-03-26T01:15:01.370Z,9.82
2023-03-26T01:15:12.333Z,9.83
2023-03-26T01:15:23.115Z,9.81
2023-03-26T01:15:34.166Z,9.81
2023-03-26T01:15:45.146Z,9.79
2023-03-26T01:15:56.082Z,9.81
2023-03-26T01:16:06.757Z,9.83
2023-03-26T01:16:17.884Z,9.81
2023-03-26T01:16:28.620Z,9.82
2023-03-26T01:16:39.668Z,9.81
2023-03-26T01:16:50.630Z,9.79
2023-03-26T01:17:01.402Z,9.82
2023-03-26T01:17:12.478Z,9.81
2023-03-26T01:17:23.432Z,9.76
2023-03-26T01:17:34.329Z,9.83
2023-03-26T01:17:44.901Z,9.82
2023-03-26T01:17:55.880Z,9.81
2023-03-26T01:18:06.606Z,9.81
2023-03-26T01:18:17.653Z,9.82
2023-03-26T01:18:28.619Z,9.83
2023-03-26T01:18:39.402Z,9.81
2023-03-26T01:18:50.431Z,9.81
2023-03-26T01:19:01.402Z,9.81
2023-03-26T01:19:12.167Z,9.82
2023-03-26T01:19:23.209Z,9.79
2023-03-26T01:19:34.193Z,9.82
2023-03-26T01:19:45.126Z,9.83
2023-03-26T01:19:55.657Z,9.82
2023-03-26T01:20:06.629Z,9.83
2023-03-26T01:20:17.401Z,9.81
2023-03-26T01:20:28.442Z,9.82
2023-03-26T01:20:39.408Z,9.82
2023-03-26T01:20:50.180Z,9.79
2023-03-26T01:21:01.221Z,9.83
2023-03-26T01:21:12.185Z,9.85
2023-03-26T01:21:22.998Z,9.81
2023-03-26T01:21:34.006Z,9.81
2023-03-26T01:21:44.976Z,9.81
2023-03-26T01:21:55.736Z,9.78
2023-03-26T01:22:06.780Z,9.79
2023-03-26T01:22:17.746Z,9.79
2023-03-26T01:22:28.515Z,9.85
2023-03-26T01:22:39.570Z,9.82
2023-03-26T01:22:50.537Z,9.82
2023-03-26T01:23:01.298Z,9.82
2023-03-26T01:23:12.360Z,9.81
2023-03-26T01:23:23.383Z,9.81
2023-03-26T01:23:34.146Z,9.82
2023-03-26T01:23:45.192Z,9.81
2023-03-26T01:23:56.158Z,9.82
2023-03-26T01:24:06.921Z,9.83
2023-03-26T01:24:17.967Z,9.82
2023-03-26T01:24:28.953Z,9.85
2023-03-26T01:24:39.706Z,9.79
2023-03-26T01:24:50.739Z,9.82
2023-03-26T01:25:01.704Z,9.82
2023-03-26T01:25:12.488Z,9.85
2023-03-26T01:25:23.523Z,9.85
2023-03-26T01:25:34.484Z,9.81
2023-03-26T01:25:45.249Z,9.83
2023-03-26T01:25:56.572Z,9.81
2023-03-26T01:26:07.028Z,9.82
2023-03-26T01:26:17.809Z,9.81
2023-03-26T01:26:28.834Z,9.85
2023-03-26T01:26:39.822Z,9.79
2023-03-26T01:26:50.572Z,9.83
2023-03-26T01:27:01.615Z,9.83
2023-03-26T01:27:12.583Z,9.83
2023-03-26T01:27:23.348Z,9.82
2023-03-26T01:27:34.392Z,9.86
2023-03-26T01:27:45.367Z,9.81
2023-03-26T01:27:56.152Z,9.82
2023-03-26T01:28:07.177Z,9.82
2023-03-26T01:28:18.156Z,9.82
2023-03-26T01:28:28.928Z,9.85
2023-03-26T01:28:39.966Z,9.82
2023-03-26T01:28:50.928Z,9.85
2023-03-26T01:29:01.704Z,9.83
2023-03-26T01:29:12.737Z,9.81
2023-03-26T01:29:23.703Z,9.82
2023-03-26T01:29:34.471Z,9.85
2023-03-26T01:29:45.520Z,9.85
2023-03-26T01:29:56.501Z,9.88
2023-03-26T01:30:07.253Z,9.85
2023-03-26T01:30:18.313Z,9.81
2023-03-26T01:30:29.264Z,9.85
2023-03-26T01:30:40.027Z,9.79
2023-03-26T01:30:51.073Z,9.83
2023-03-26T01:31:02.070Z,9.82
2023-03-26T01:31:12.832Z,9.85
2023-03-26T01:31:23.879Z,9.82
2023-03-26T01:31:34.846Z,9.83
2023-03-26T01:31:45.604Z,9.85
2023-03-26T01:31:56.651Z,9.83
2023-03-26T01:32:07.618Z,9.82
2023-03-26T01:32:18.407Z,9.86
2023-03-26T01:32:29.586Z,9.83
2023-03-26T01:32:40.149Z,9.81
2023-03-26T01:32:51.056Z,9.85
2023-03-26T01:33:01.585Z,9.86
2023-03-26T01:33:12.633Z,9.82
2023-03-26T01:33:23.518Z,9.86
2023-03-26T01:33:34.215Z,9.83
2023-03-26T01:33:44.733Z,9.81
2023-03-26T01:33:55.567Z,9.82
2023-03-26T01:34:06.617Z,9.79
2023-03-26T01:34:17.573Z,9.83
2023-03-26T01:34:28.340Z,9.79
2023-03-26T01:34:39.382Z,9.81
2023-03-26T01:34:50.349Z,9.85
2023-03-26T01:35:01.109Z,9.85
2023-03-26T01:35:12.153Z,9.81
2023-03-26T01:35:23.199Z,9.86
2023-03-26T01:35:33.996Z,9.83
2023-03-26T01:35:45.090Z,9.82
2023-03-26T01:35:56.199Z,9.82
2023-03-26T01:36:07.094Z,9.86
2023-03-26T01:36:18.102Z,9.83
2023-03-26T01:36:29.070Z,9.83
2023-03-26T01:36:39.835Z,9.83
2023-03-26T01:36:50.891Z,9.85
2023-03-26T01:37:01.850Z,9.85
2023-03-26T01:37:12.624Z,9.86
2023-03-26T01:37:23.670Z,9.83
2023-03-26T01:37:34.629Z,9.83
2023-03-26T01:37:45.393Z,9.89
2023-03-26T01:37:56.447Z,9.83
2023-03-26T01:38:07.424Z,9.86
2023-03-26T01:38:18.192Z,9.82
2023-03-26T01:38:29.243Z,9.86
2023-03-26T01:38:40.214Z,9.83
2023-03-26T01:38:50.985Z,9.86
2023-03-26T01:39:02.040Z,9.85
2023-03-26T01:39:12.996Z,9.86
2023-03-26T01:39:23.754Z,9.83
2023-03-26T01:39:34.803Z,9.83
2023-03-26T01:39:45.766Z,9.85
2023-03-26T01:39:56.545Z,9.83
2023-03-26T01:40:07.579Z,9.86
2023-03-26T01:40:18.541Z,9.83
2023-03-26T01:40:29.304Z,9.89
2023-03-26T01:40:40.416Z,9.81
2023-03-26T01:40:51.327Z,9.85
2023-03-26T01:41:02.091Z,9.85
2023-03-26T01:41:13.142Z,9.83
2023-03-26T01:41:24.109Z,9.85
2023-03-26T01:41:34.890Z,9.88
2023-03-26T01:41:45.918Z,9.83
2023-03-26T01:41:56.886Z,9.85
2023-03-26T01:42:07.651Z,9.85
2023-03-26T01:42:18.697Z,9.82
2023-03-26T01:42:29.663Z,9.82
2023-03-26T01:42:40.425Z,9.85
2023-03-26T01:42:51.475Z,9.81
2023-03-26T01:43:02.449Z,9.86
2023-03-26T01:43:13.213Z,9.86
2023-03-26T01:43:24.270Z,9.88
2023-03-26T01:43:35.243Z,9.88
2023-03-26T01:43:46.005Z,9.85
2023-03-26T01:43:57.048Z,9.83
2023-03-26T01:44:08.016Z,9.85
2023-03-26T01:44:18.780Z,9.83
2023-03-26T01:44:29.823Z,9.86
2023-03-26T01:44:40.789Z,9.83
2023-03-26T01:44:51.559Z,9.89
2023-03-26T01:45:02.607Z,9.85
2023-03-26T01:45:13.570Z,9.85
2023-03-26T01:45:24.339Z,9.85
2023-03-26T01:45:35.395Z,9.85
2023-03-26T01:45:46.347Z,9.88
2023-03-26T01:45:57.169Z,9.83
2023-03-26T01:46:07.681Z,9.88
2023-03-26T01:46:18.649Z,9.82
2023-03-26T01:46:29.420Z,9.85
2023-03-26T01:46:40.513Z,9.83
2023-03-26T01:46:51.484Z,9.85
2023-03-26T01:47:02.216Z,9.86
2023-03-26T01:47:13.260Z,9.85
2023-03-26T01:47:24.262Z,9.82
2023-03-26T01:47:35.052Z,9.83
2023-03-26T01:47:46.086Z,9.86
2023-03-26T01:47:57.066Z,9.76
2023-03-26T01:48:07.806Z,9.88
2023-03-26T01:48:18.848Z,9.85
2023-03-26T01:48:29.815Z,9.85
2023-03-26T01:48:40.592Z,9.86
2023-03-26T01:48:51.649Z,9.85
2023-03-26T01:49:02.601Z,9.83
2023-03-26T01:49:13.705Z,9.85
2023-03-26T01:49:24.324Z,9.83
2023-03-26T01:49:35.292Z,9.82
2023-03-26T01:49:46.051Z,9.86
2023-03-26T01:49:57.091Z,9.85
2023-03-26T01:50:08.063Z,9.86
2023-03-26T01:50:18.829Z,9.86
2023-03-26T01:50:29.876Z,9.85
2023-03-26T01:50:40.836Z,9.81
2023-03-26T01:50:51.607Z,9.88
2023-03-26T01:51:02.657Z,9.81
2023-03-26T01:51:13.619Z,9.83
2023-03-26T01:51:24.386Z,9.85
2023-03-26T01:51:35.433Z,9.83
2023-03-26T01:51:46.393Z,9.79
2023-03-26T01:51:57.160Z,9.85
2023-03-26T01:52:08.202Z,9.85
2023-03-26T01:52:19.172Z,9.82
2023-03-26T01:52:29.933Z,9.86
2023-03-26T01:52:40.983Z,9.85
2023-03-26T01:52:51.943Z,9.82
2023-03-26T01:53:02.716Z,9.83
2023-03-26T01:53:13.764Z,9.85
2023-03-26T01:53:24.735Z,9.83
2023-03-26T01:53:35.509Z,9.83
2023-03-26T01:53:46.556Z,9.79
2023-03-26T01:53:57.531Z,9.83
2023-03-26T01:54:08.290Z,9.82
2023-03-26T01:54:19.340Z,9.83
2023-03-26T01:54:30.310Z,9.83
2023-03-26T01:54:41.069Z,9.83
2023-03-26T01:54:52.116Z,9.86
2023-03-26T01:55:03.087Z,9.81
2023-03-26T01:55:13.846Z,9.83
2023-03-26T01:55:24.892Z,9.83
2023-03-26T01:55:35.862Z,9.82
2023-03-26T01:55:46.619Z,9.82
2023-03-26T01:55:57.667Z,9.81
2023-03-26T01:56:08.627Z,9.81
2023-03-26T01:56:19.405Z,9.83
2023-03-26T01:56:30.487Z,9.81
2023-03-26T01:56:41.538Z,9.83
2023-03-26T01:56:52.363Z,9.81
2023-03-26T01:57:02.900Z,9.82
2023-03-26T01:57:13.922Z,9.83
2023-03-26T01:57:24.651Z,9.79
2023-03-26T01:57:35.698Z,9.81
2023-03-26T01:57:46.656Z,9.81
2023-03-26T01:57:57.423Z,9.82
2023-03-26T01:58:08.464Z,9.85
2023-03-26T01:58:19.454Z,9.79
2023-03-26T01:58:30.228Z,9.81
2023-03-26T01:58:41.264Z,9.81
2023-03-26T01:58:52.254Z,9.79
2023-03-26T01:59:03.014Z,9.81
2023-03-26T01:59:14.065Z,9.81
2023-03-26T01:59:25.029Z,9.76
2023-03-26T01:59:35.816Z,9.75
2023-03-26T01:59:46.863Z,9.78
2023-03-26T01:59:57.830Z,9.75
2023-03-26T02:00:08.590Z,9.82
2023-03-26T02:00:19.636Z,9.75
2023-03-26T02:00:30.607Z,9.76
2023-03-26T02:00:41.371Z,9.79
2023-03-26T02:00:52.409Z,9.76
2023-03-26T02:01:03.504Z,9.73
2023-03-26T02:01:14.262Z,9.79
2023-03-26T02:01:25.349Z,9.76
2023-03-26T02:01:36.432Z,9.75
2023-03-26T02:01:47.264Z,9.73
2023-03-26T02:01:58.331Z,9.78
2023-03-26T02:02:09.424Z,9.73
2023-03-26T02:02:20.311Z,9.79
2023-03-26T02:02:30.921Z,9.71
2023-03-26T02:02:41.539Z,9.76
2023-03-26T02:02:52.424Z,9.71
2023-03-26T02:03:02.947Z,9.76
2023-03-26T02:03:14.122Z,9.76
2023-03-26T02:03:25.085Z,9.79
2023-03-26T02:03:35.615Z,9.76
2023-03-26T02:03:46.582Z,9.76
2023-03-26T02:03:57.330Z,9.81
2023-03-26T02:04:08.363Z,9.79
2023-03-26T02:04:19.325Z,9.76
2023-03-26T02:04:30.089Z,9.78
2023-03-26T02:04:41.132Z,9.73
2023-03-26T02:04:52.103Z,9.75
2023-03-26T02:05:02.861Z,9.76
2023-03-26T02:05:13.911Z,9.75
2023-03-26T02:05:24.872Z,9.78
2023-03-26T02:05:35.638Z,9.75
2023-03-26T02:05:46.679Z,9.76
2023-03-26T02:05:57.641Z,9.71
2023-03-26T02:06:08.403Z,9.79
2023-03-26T02:06:19.454Z,9.75
2023-03-26T02:06:30.420Z,9.73
2023-03-26T02:06:41.186Z,9.71
2023-03-26T02:06:52.242Z,9.75
2023-03-26T02:07:03.198Z,9.70
2023-03-26T02:07:13.956Z,9.76
2023-03-26T02:07:25.002Z,9.75
2023-03-26T02:07:35.969Z,9.73
2023-03-26T02:07:46.731Z,9.75
2023-03-26T02:07:57.785Z,9.71
2023-03-26T02:08:08.748Z,9.78
2023-03-26T02:08:19.513Z,9.73
2023-03-26T02:08:30.575Z,9.73
2023-03-26T02:08:41.537Z,9.78
2023-03-26T02:08:52.301Z,9.73
2023-03-26T02:09:03.358Z,9.73
2023-03-26T02:09:14.333Z,9.76
2023-03-26T02:09:25.094Z,9.71
2023-03-26T02:09:36.144Z,9.75
2023-03-26T02:09:47.112Z,9.71
2023-03-26T02:09:57.866Z,9.70
2023-03-26T02:10:08.919Z,9.71
2023-03-26T02:10:19.890Z,9.75
2023-03-26T02:10:30.641Z,9.73
2023-03-26T02:10:41.687Z,9.70
2023-03-26T02:10:52.657Z,9.75
2023-03-26T02:11:03.428Z,9.75
2023-03-26T02:11:14.474Z,9.68
2023-03-26T02:11:34.686Z,9.70
2023-03-26T02:11:37.066Z,9.71
2023-03-26T02:11:47.018Z,9.71
2023-03-26T02:11:57.980Z,9.73
2023-03-26T02:12:08.746Z,9.70
2023-03-26T02:12:19.790Z,9.70
2023-03-26T02:12:30.757Z,9.71
2023-03-26T02:12:41.520Z,9.71
2023-03-26T02:12:52.579Z,9.73
2023-03-26T02:13:03.545Z,9.70
2023-03-26T02:13:14.310Z,9.73
2023-03-26T02:13:25.350Z,9.75
2023-03-26T02:13:36.331Z,9.66
2023-03-26T02:13:47.096Z,9.75
2023-03-26T02:13:58.154Z,9.71
2023-03-26T02:14:09.161Z,9.66
2023-03-26T02:14:19.924Z,9.73
2023-03-26T02:14:30.976Z,9.70
2023-03-26T02:14:41.938Z,9.68
2023-03-26T02:14:52.701Z,9.71
2023-03-26T02:15:03.744Z,9.70
2023-03-26T02:15:14.717Z,9.73
2023-03-26T02:15:25.487Z,9.70
2023-03-26T02:15:36.522Z,9.73
2023-03-26T02:15:47.554Z,9.73
2023-03-26T02:15:58.325Z,9.67
2023-03-26T02:16:09.352Z,9.68
2023-03-26T02:16:20.293Z,9.70
2023-03-26T02:16:31.122Z,9.71
2023-03-26T02:16:42.210Z,9.70
2023-03-26T02:16:53.152Z,9.67
2023-03-26T02:17:03.911Z,9.68
2023-03-26T02:17:14.958Z,9.70
2023-03-26T02:17:25.984Z,9.63
2023-03-26T02:17:36.696Z,9.71
2023-03-26T02:17:47.754Z,9.71
2023-03-26T02:17:58.720Z,9.68
2023-03-26T02:18:09.470Z,9.73
2023-03-26T02:18:20.519Z,9.68
2023-03-26T02:18:31.482Z,9.70
2023-03-26T02:18:42.266Z,9.67
2023-03-26T02:18:53.309Z,9.70
2023-03-26T02:19:04.327Z,9.66
2023-03-26T02:19:15.064Z,9.71
2023-03-26T02:19:26.112Z,9.70
2023-03-26T02:19:37.076Z,9.68
2023-03-26T02:19:47.839Z,9.70
2023-03-26T02:19:58.890Z,9.71
2023-03-26T02:20:09.894Z,9.67
2023-03-26T02:20:20.623Z,9.67
2023-03-26T02:20:31.664Z,9.67
2023-03-26T02:20:42.637Z,9.68
2023-03-26T02:20:53.400Z,9.66
2023-03-26T02:21:04.443Z,9.67
2023-03-26T02:21:15.417Z,9.66
2023-03-26T02:21:26.237Z,9.67
2023-03-26T02:21:37.241Z,9.67
2023-03-26T02:21:48.209Z,9.67
2023-03-26T02:21:58.972Z,9.71
2023-03-26T02:22:10.041Z,9.67
2023-03-26T02:22:21.010Z,9.66
2023-03-26T02:22:31.773Z,9.66
2023-03-26T02:22:42.809Z,9.67
2023-03-26T02:22:53.784Z,9.66
2023-03-26T02:23:04.543Z,9.66
2023-03-26T02:23:15.587Z,9.67
2023-03-26T02:23:26.560Z,9.66
2023-03-26T02:23:37.335Z,9.70
2023-03-26T02:23:48.393Z,9.68
2023-03-26T02:23:59.356Z,9.66
2023-03-26T02:24:10.124Z,9.67
2023-03-26T02:24:21.180Z,9.61
2023-03-26T02:24:32.141Z,9.67
2023-03-26T02:24:42.907Z,9.67
2023-03-26T02:24:53.955Z,9.66
2023-03-26T02:25:04.919Z,9.63